• Join FlightAware (Why Join?)
  • Login
  • US Flag 
Gobble Gobble! 
06:33PM EST


 

Airport Tracker/Info


-or-


 

Live Flight TrackerFlight Track Log ✈ VNR104 ✈ 10-May-2013 ✈ KELK - KBNA

Flight Track Log - Related Links

Times and Time Zones

All times are in EDT time to prevent confusion due to time zone crossing. See the VNR104 flight status page for this flight to view local times or setup timezone preferences in your user account.

Time Position Orientation Groundspeed Altitude Reporting Facility
EDT Latitude Longitude Course Direction KTS MPH feet Rate Location/Type
02:30PM 35.4558 -99.3031 82° East 183 211 5,100  Level Kansas City Center
02:30PM 35.4614 -99.2536 82° East 374 430 7,000 2,400 Climbing Fort Worth Center
02:31PM 35.4686 -99.1900 82° East 257 296 8,900 1,680 Climbing Fort Worth Center
02:32PM 35.4739 -99.1111 85° East 226 260 10,400 1,740 Climbing Fort Worth Center
02:33PM 35.4814 -99.0247 84° East 233 268 12,400 1,920 Climbing Fort Worth Center
02:34PM 35.4867 -98.9356 86° East 249 287 14,300 1,800 Climbing Fort Worth Center
02:35PM 35.4961 -98.8439 83° East 259 298 16,100 1,740 Climbing Fort Worth Center
02:36PM 35.5033 -98.7472 85° East 271 312 17,800 1,680 Climbing Fort Worth Center
02:37PM 35.5106 -98.6503 85° East 276 318 19,500 1,620 Climbing Fort Worth Center
02:38PM 35.5178 -98.5511 85° East 276 318 21,100 1,440 Climbing Fort Worth Center
02:39PM 35.5269 -98.4567 83° East 276 318 22,400 1,380 Climbing Fort Worth Center
02:40PM 35.5339 -98.3547 85° East 282 325 24,000 1,560 Climbing Fort Worth Center
02:41PM 35.5411 -98.2528 85° East 293 337 25,600 1,560 Climbing Fort Worth Center
02:43PM 35.5544 -98.0486 85° East 305 351 28,600 1,500 Climbing Kansas City Center
02:44PM 35.5628 -97.9419 84° East 312 359 30,000 1,020 Climbing Kansas City Center
02:45PM 35.5706 -97.8331 85° East 316 364 30,800 720 Climbing Kansas City Center
02:46PM 35.5783 -97.7172 85° East 332 382 31,600 840 Climbing Kansas City Center
02:47PM 35.5861 -97.5992 85° East 342 394 32,600 660 Climbing Kansas City Center
02:48PM 35.5967 -97.4533 85° East 351 404 33,000 180 Climbing Kansas City Center
02:49PM 35.6058 -97.3217 85° East 373 429 33,000  Level Kansas City Center
02:50PM 35.6144 -97.1861 85° East 386 444 33,000  Level Kansas City Center
02:51PM 35.6228 -97.0494 86° East 393 452 33,000  Level Kansas City Center
02:52PM 35.6314 -96.9103 86° East 404 465 33,000  Level Kansas City Center
02:53PM 35.6400 -96.7697 86° East 410 472 33,000  Level Kansas City Center
02:54PM 35.6483 -96.6292 86° East 413 475 33,000  Level Kansas City Center
02:55PM 35.6569 -96.4900 86° East 411 473 33,000  Level Kansas City Center
02:56PM 35.6656 -96.3214 86° East 412 474 33,000  Level Kansas City Center
02:57PM 35.6736 -96.1814 86° East 413 475 33,000  Level Kansas City Center
02:59PM 35.6825 -96.0336 86° East 411 473 33,000  Level Kansas City Center
03:00PM 35.6886 -95.8936 87° East 411 473 33,000  Level Kansas City Center
03:01PM 35.6989 -95.7544 85° East 410 472 33,000  Level Kansas City Center
03:02PM 35.7103 -95.6136 84° East 413 475 33,000  Level Kansas City Center
03:03PM 35.7208 -95.4722 85° East 416 479 33,000  Level Kansas City Center
03:04PM 35.7328 -95.3036 85° East 415 478 33,000  Level Kansas City Center
03:05PM 35.7433 -95.1631 85° East 415 478 33,000  Level Kansas City Center
03:06PM 35.7533 -95.0197 85° East 419 482 33,000  Level Kansas City Center
03:06PM 35.7536 -94.9869 89° East 416 479 33,000  Level Memphis Center
03:07PM 35.7631 -94.8467 85° East 416 479 33,000  Level Memphis Center
03:08PM 35.7639 -94.7061 90° East 416 479 33,000  Level Memphis Center
03:09PM 35.7625 -94.5628 91° East 416 479 33,000  Level Memphis Center
03:10PM 35.7650 -94.4197 89° East 421 484 33,000  Level Memphis Center
03:11PM 35.7675 -94.2767 89° East 421 484 33,000  Level Memphis Center
03:12PM 35.7678 -94.1358 90° East 421 484 33,000  Level Memphis Center
03:13PM 35.7722 -93.9878 88° East 421 484 33,000  Level Memphis Center
03:14PM 35.7719 -93.8469 90° East 421 484 33,000  Level Memphis Center
03:15PM 35.7739 -93.7039 89° East 421 484 33,000  Level Memphis Center
03:16PM 35.7758 -93.5478 89° East 416 479 33,100 600 Climbing Memphis Center
03:17PM 35.7750 -93.4119 90° East 411 473 34,300 900 Climbing Memphis Center
03:18PM 35.7761 -93.2817 89° East 395 455 35,000 300 Climbing Memphis Center
03:19PM 35.7772 -93.1461 89° East 389 448 35,000  Level Memphis Center
03:20PM 35.7761 -93.0053 91° East 394 453 35,000  Level Memphis Center
03:21PM 35.7769 -92.8647 90° East 400 460 35,000  Level Memphis Center
03:22PM 35.7733 -92.7211 92° East 411 473 35,000  Level Memphis Center
03:23PM 35.7761 -92.5756 89° East 416 479 35,000  Level Memphis Center
03:24PM 35.7744 -92.4294 91° East 423 487 35,000  Level Memphis Center
03:25PM 35.7728 -92.2811 91° East 423 487 35,000  Level Memphis Center
03:26PM 35.7728 -92.1328 90° East 423 487 35,000  Level Memphis Center
03:27PM 35.7686 -91.9842 92° East 423 487 35,000  Level Memphis Center
03:28PM 35.7703 -91.8383 89° East 423 487 35,000  Level Memphis Center
03:29PM 35.7678 -91.6900 91° East 423 487 35,000  Level Memphis Center
03:30PM 35.7672 -91.5417 90° East 423 487 35,000  Level Memphis Center
03:31PM 35.7581 -91.3956 94° East 423 487 35,000  Level Memphis Center
03:32PM 35.7572 -91.2447 90° East 423 487 35,000  Level Memphis Center
03:33PM 35.7539 -91.0989 92° East 423 487 35,000  Level Memphis Center
03:34PM 35.7506 -90.9506 92° East 423 487 35,000  Level Memphis Center
03:35PM 35.7492 -90.8019 91° East 423 487 35,000  Level Memphis Center
03:36PM 35.7453 -90.6536 92° East 428 493 35,000  Level Memphis Center
03:37PM 35.7436 -90.5003 91° East 433 498 35,000  Level Memphis Center
03:38PM 35.7394 -90.3494 92° East 438 504 35,000  Level Memphis Center
03:39PM 35.7372 -90.1983 91° East 438 504 35,000  Level Memphis Center
03:40PM 35.7328 -90.0475 92° East 438 504 35,000  Level Memphis Center
03:41PM 35.7303 -89.8992 91° East 438 504 35,000  Level Memphis Center
03:42PM 35.7233 -89.7483 93° East 438 504 35,000  Level Memphis Center
03:43PM 35.7206 -89.6000 91° East 438 504 35,000  Level Memphis Center
03:44PM 35.7172 -89.4467 91° East 438 504 35,000  Level Memphis Center
03:45PM 35.7119 -89.2961 92° East 438 504 35,000 -300 Level Memphis Center
03:46PM 35.7083 -89.1425 92° East 438 504 34,400 -600 Descending Memphis Center
03:47PM 35.7028 -88.9919 93° East 438 504 33,800 -660 Descending Memphis Center
03:48PM 35.7011 -88.8514 91° East 426 490 33,100 -720 Descending Memphis Center
03:49PM 35.7056 -88.7208 88° East 398 458 32,400 -720 Descending Memphis Center
03:50PM 35.7183 -88.5850 83° East 398 458 31,700 -660 Descending Memphis Center
03:51PM 35.7331 -88.4442 83° East 398 458 31,100 -660 Descending Memphis Center
03:52PM 35.7453 -88.3031 84° East 403 464 30,400 -720 Descending Memphis Center
03:53PM 35.7575 -88.1622 84° East 409 471 29,700 -1,320 Descending Memphis Center
03:54PM 35.7675 -88.0289 85° East 397 457 27,800 -2,040 Descending Memphis Center
03:55PM 35.7778 -87.9056 84° East 410 472 25,700 -2,700 Descending Memphis Center
03:56PM 35.7875 -87.7697 85° East 405 466 22,400 -3,300 Descending Memphis Center
03:57PM 35.7975 -87.6492 84° East 376 433 19,100 -3,300 Descending Memphis Center
03:58PM 35.8075 -87.5336 84° East 347 399 15,800 -3,300 Descending Memphis Center
03:59PM 35.8425 -87.4353 66° East 320 368 12,600 -2,400 Descending Memphis Center
04:00PM 35.8778 -87.3367 66° East 312 359 11,100 -1,380 Descending Memphis Center
04:01PM 35.9131 -87.2406 66° East 306 352 9,900 -900 Descending Memphis Center
04:02PM 35.9461 -87.1494 66° East 301 346 9,300 -1,140 Descending Memphis Center
04:03PM 35.9853 -87.0556 63° Northeast 285 328 7,700 -1,920 Descending Memphis Center
04:04PM 36.0225 -86.9642 63° Northeast 285 328 5,500 -1,380 Descending Memphis Center
04:05PM 36.0594 -86.8728 63° Northeast 294 338 5,000 -300 Descending Memphis Center
04:06PM 36.1158 -86.7958 48° Northeast 294 338 5,000 -300 Level Memphis Center
04:07PM 36.1939 -86.7617 19° North 284 327 4,400 -780 Descending Memphis Center
04:08PM 36.2681 -86.7328 17° North 279 321 3,500 -960 Descending Memphis Center
04:09PM 36.2764 -86.6575 82° East 199 229 2,500 -600 Descending Memphis Center
04:10PM 36.2197 -86.6422 168° South 155 178 2,300 -600 Descending Memphis Center
04:11PM 36.1744 -86.6647 202° Southwest 156 180 1,300 -840 Descending Memphis Center
04:12PM 36.1436 -86.6764 197° South 146 168 700 -600 Descending Memphis Center
04:14PM 36.1245 -86.6782 171° South  Level Estimated
04:21PM 36.1245 -86.6782 171° South  Level Estimated
04:22PM 36.1245 -86.6782 171° South  Level Estimated
04:23PM 36.1245 -86.6782 171° South  Level Estimated
04:24PM 36.1245 -86.6782 171° South  Level Estimated
04:25PM 36.1245 -86.6782 171° South  Level Estimated
04:26PM 36.1245 -86.6782 171° South  Level Estimated
04:27PM 36.1245 -86.6782 171° South  Level Estimated